createdAt,value
2022-09-27T00:01:10.579Z,11.10
2022-09-27T00:03:38.504Z,11.10
2022-09-27T00:06:30.553Z,11.10
2022-09-27T00:08:58.761Z,11.10
2022-09-27T00:11:34.137Z,11.00
2022-09-27T00:14:21.059Z,10.90
2022-09-27T00:16:48.224Z,10.90
2022-09-27T00:19:19.585Z,10.80
2022-09-27T00:21:47.639Z,10.80
2022-09-27T00:24:20.439Z,10.80
2022-09-27T00:26:48.662Z,10.80
2022-09-27T00:29:18.059Z,10.80
2022-09-27T00:31:46.751Z,10.80
2022-09-27T00:34:23.860Z,10.90
2022-09-27T00:36:52.501Z,10.90
2022-09-27T00:39:19.342Z,10.90
2022-09-27T00:41:46.293Z,11.00
2022-09-27T00:44:25.295Z,11.00
2022-09-27T00:47:13.435Z,10.90
2022-09-27T00:50:09.664Z,10.90
2022-09-27T00:53:04.164Z,10.90
2022-09-27T00:55:39.886Z,10.90
2022-09-27T00:58:08.133Z,10.90
2022-09-27T01:00:42.478Z,10.80
2022-09-27T01:03:16.652Z,10.80
2022-09-27T01:05:44.728Z,10.80
2022-09-27T01:08:12.827Z,10.80
2022-09-27T01:11:20.113Z,10.80
2022-09-27T01:14:33.136Z,10.80
2022-09-27T01:17:45.702Z,10.70
2022-09-27T01:20:52.141Z,10.70
2022-09-27T01:24:03.799Z,10.60
2022-09-27T01:26:44.517Z,10.70
2022-09-27T01:29:14.146Z,10.70
2022-09-27T01:32:27.098Z,10.70
2022-09-27T01:35:39.210Z,10.70
2022-09-27T01:38:43.433Z,10.60
2022-09-27T01:41:38.589Z,10.70
2022-09-27T01:44:23.970Z,10.70
2022-09-27T01:47:01.482Z,10.80
2022-09-27T01:50:01.025Z,10.70
2022-09-27T01:52:44.580Z,10.70
2022-09-27T01:55:16.929Z,10.60
2022-09-27T01:57:53.506Z,10.70
2022-09-27T02:00:20.701Z,10.80
2022-09-27T02:02:56.264Z,10.90
2022-09-27T02:05:35.233Z,10.90
2022-09-27T02:08:12.745Z,10.80
2022-09-27T02:10:47.189Z,10.80
2022-09-27T02:13:24.797Z,10.80
2022-09-27T02:16:30.156Z,10.70
2022-09-27T02:20:03.806Z,10.70
2022-09-27T02:22:42.403Z,10.60
2022-09-27T02:25:38.354Z,10.50
2022-09-27T02:28:15.114Z,10.50
2022-09-27T02:30:42.167Z,10.40
2022-09-27T02:33:09.084Z,10.40
2022-09-27T02:35:36.811Z,10.40
2022-09-27T02:38:07.007Z,10.40
2022-09-27T02:40:42.581Z,10.40
2022-09-27T02:43:10.422Z,10.40
2022-09-27T02:46:20.468Z,10.40
2022-09-27T02:49:28.483Z,10.40
2022-09-27T02:52:29.024Z,10.40
2022-09-27T02:55:40.741Z,10.40
2022-09-27T02:58:19.330Z,10.30
2022-09-27T03:00:59.957Z,10.30
2022-09-27T03:03:34.190Z,10.30
2022-09-27T03:06:13.149Z,10.30
2022-09-27T03:08:43.544Z,10.30
2022-09-27T03:11:10.398Z,10.30
2022-09-27T03:14:01.302Z,10.30
2022-09-27T03:16:27.060Z,10.30
2022-09-27T03:18:53.759Z,10.30
2022-09-27T03:21:20.554Z,10.20
2022-09-27T03:23:47.278Z,10.20
2022-09-27T03:26:16.395Z,10.20
2022-09-27T03:28:43.386Z,10.10
2022-09-27T03:31:10.240Z,10.20
2022-09-27T03:33:37.013Z,10.20
2022-09-27T03:36:19.168Z,10.10
2022-09-27T03:38:45.852Z,10.10
2022-09-27T03:41:12.622Z,10.10
2022-09-27T03:43:39.352Z,10.20
2022-09-27T03:46:06.222Z,10.20
2022-09-27T03:48:33.199Z,10.20
2022-09-27T03:50:59.986Z,10.30
2022-09-27T03:53:26.767Z,10.20
2022-09-27T03:55:53.526Z,10.30
2022-09-27T03:58:20.312Z,10.20
2022-09-27T04:00:47.851Z,10.20
2022-09-27T04:03:14.984Z,10.20
2022-09-27T04:05:41.711Z,10.20
2022-09-27T04:08:11.509Z,10.10
2022-09-27T04:10:38.623Z,10.10
2022-09-27T04:13:06.401Z,10.10
2022-09-27T04:15:33.147Z,10.00
2022-09-27T04:17:59.924Z,10.10
2022-09-27T04:20:26.766Z,10.10
2022-09-27T04:22:53.493Z,10.10
2022-09-27T04:25:20.191Z,10.00
2022-09-27T04:27:48.655Z,10.10
2022-09-27T04:30:16.043Z,10.10
2022-09-27T04:32:44.845Z,10.10
2022-09-27T04:35:31.681Z,10.00
2022-09-27T04:37:59.723Z,10.00
2022-09-27T04:40:26.648Z,9.90
2022-09-27T04:42:53.460Z,10.00
2022-09-27T04:45:21.308Z,10.00
2022-09-27T04:47:50.200Z,10.00
2022-09-27T04:50:18.276Z,9.90
2022-09-27T04:52:45.114Z,9.90
2022-09-27T04:55:11.933Z,9.90
2022-09-27T04:57:40.738Z,9.90
2022-09-27T05:00:08.680Z,10.00
2022-09-27T05:02:35.541Z,9.90
2022-09-27T05:05:03.659Z,9.80
2022-09-27T05:07:30.363Z,9.90
2022-09-27T05:09:57.064Z,9.90
2022-09-27T05:12:26.761Z,9.90
2022-09-27T05:14:54.551Z,9.90
2022-09-27T05:17:22.292Z,9.90
2022-09-27T05:19:49.844Z,9.80
2022-09-27T05:22:17.265Z,9.90
2022-09-27T05:24:44.092Z,9.90
2022-09-27T05:27:18.443Z,9.80
2022-09-27T05:29:45.707Z,9.80
2022-09-27T05:32:12.918Z,9.80
2022-09-27T05:34:39.770Z,9.90
2022-09-27T05:37:06.795Z,9.90
2022-09-27T05:39:33.672Z,9.90
2022-09-27T05:42:00.479Z,9.90
2022-09-27T05:44:27.208Z,9.80
2022-09-27T05:46:53.920Z,9.90
2022-09-27T05:49:21.731Z,9.90
2022-09-27T05:51:48.632Z,9.90
2022-09-27T05:54:15.390Z,9.90
2022-09-27T05:56:42.177Z,9.90
2022-09-27T05:59:09.002Z,9.90
2022-09-27T06:01:35.831Z,9.90
2022-09-27T06:04:05.341Z,9.90
2022-09-27T06:06:36.653Z,9.90
2022-09-27T06:09:03.545Z,9.90
2022-09-27T06:11:30.389Z,9.90
2022-09-27T06:13:57.650Z,9.90
2022-09-27T06:16:24.420Z,9.90
2022-09-27T06:18:52.124Z,9.80
2022-09-27T06:21:20.275Z,9.80
2022-09-27T06:23:48.757Z,9.80
2022-09-27T06:26:20.205Z,9.80
2022-09-27T06:28:47.252Z,9.80
2022-09-27T06:31:15.439Z,9.80
2022-09-27T06:33:42.177Z,9.80
2022-09-27T06:36:09.773Z,9.80
2022-09-27T06:38:36.825Z,9.80
2022-09-27T06:41:06.489Z,9.80
2022-09-27T06:43:34.117Z,9.90
2022-09-27T06:46:04.637Z,9.90
2022-09-27T06:48:33.916Z,10.00
2022-09-27T06:51:03.100Z,10.00
2022-09-27T06:53:30.059Z,10.10
2022-09-27T06:56:01.304Z,10.10
2022-09-27T06:58:48.063Z,10.20
2022-09-27T07:01:15.463Z,10.30
2022-09-27T07:03:43.203Z,10.30
2022-09-27T07:06:20.280Z,10.40
2022-09-27T07:08:54.084Z,10.50
2022-09-27T07:11:23.499Z,10.60
2022-09-27T07:13:51.769Z,10.70
2022-09-27T07:16:19.142Z,10.80
2022-09-27T07:18:49.607Z,11.00
2022-09-27T07:21:16.485Z,11.00
2022-09-27T07:23:43.274Z,11.10
2022-09-27T07:26:10.539Z,11.00
2022-09-27T07:28:37.756Z,11.00
2022-09-27T07:31:05.086Z,11.00
2022-09-27T07:33:33.101Z,11.00
2022-09-27T07:36:00.085Z,11.00
2022-09-27T07:38:27.138Z,10.90
2022-09-27T07:40:53.952Z,11.00
2022-09-27T07:43:21.822Z,11.00
2022-09-27T07:45:49.626Z,11.10
2022-09-27T07:48:17.574Z,11.00
2022-09-27T07:50:44.348Z,11.00
2022-09-27T07:53:13.778Z,11.00
2022-09-27T07:55:41.033Z,11.00
2022-09-27T07:58:13.622Z,11.10
2022-09-27T08:00:40.904Z,11.10
2022-09-27T08:03:11.261Z,11.10
2022-09-27T08:05:39.693Z,10.90
2022-09-27T08:08:09.300Z,10.90
2022-09-27T08:10:36.657Z,10.90
2022-09-27T08:13:05.285Z,10.90
2022-09-27T08:15:38.961Z,10.90
2022-09-27T08:18:16.529Z,10.90
2022-09-27T08:20:43.460Z,10.90
2022-09-27T08:23:10.549Z,10.80
2022-09-27T08:25:37.306Z,10.70
2022-09-27T08:28:07.284Z,10.70
2022-09-27T08:30:34.181Z,10.60
2022-09-27T08:33:03.386Z,10.50
2022-09-27T08:35:33.705Z,10.40
2022-09-27T08:38:02.342Z,10.20
2022-09-27T08:40:57.748Z,10.20
2022-09-27T08:44:02.205Z,10.00
2022-09-27T08:46:58.278Z,10.00
2022-09-27T08:50:27.082Z,10.10
2022-09-27T08:53:46.826Z,10.10
2022-09-27T08:56:20.304Z,10.10
2022-09-27T08:59:14.353Z,10.10
2022-09-27T09:01:51.558Z,10.10
2022-09-27T09:04:38.673Z,10.10
2022-09-27T09:07:40.683Z,10.00
2022-09-27T09:11:11.444Z,9.90
2022-09-27T09:14:28.691Z,9.90
2022-09-27T09:17:24.712Z,10.00
2022-09-27T09:20:20.714Z,9.90
2022-09-27T09:22:57.291Z,10.00
2022-09-27T09:25:41.368Z,9.90
2022-09-27T09:28:57.308Z,10.00
2022-09-27T09:32:06.883Z,9.90
2022-09-27T09:34:49.225Z,10.00
2022-09-27T09:37:44.878Z,10.10
2022-09-27T09:40:29.262Z,10.20
2022-09-27T09:43:26.083Z,10.20
2022-09-27T09:46:10.338Z,10.30
2022-09-27T09:48:45.789Z,10.30
2022-09-27T09:51:32.000Z,10.20
2022-09-27T09:54:06.711Z,10.20
2022-09-27T09:57:11.022Z,10.30
2022-09-27T09:59:49.343Z,10.20
2022-09-27T10:02:33.931Z,10.20
2022-09-27T10:05:07.670Z,10.20
2022-09-27T10:07:39.093Z,10.20
2022-09-27T10:10:17.372Z,10.30
2022-09-27T10:12:49.776Z,10.20
2022-09-27T10:15:24.476Z,10.30
2022-09-27T10:17:57.954Z,10.30
2022-09-27T10:20:39.661Z,10.30
2022-09-27T10:23:22.251Z,10.40
2022-09-27T10:25:56.437Z,10.50
2022-09-27T10:28:33.135Z,10.60
2022-09-27T10:31:10.599Z,10.70
2022-09-27T10:34:02.784Z,10.80
2022-09-27T10:36:33.493Z,10.80
2022-09-27T10:39:05.080Z,10.80
2022-09-27T10:41:37.799Z,10.90
2022-09-27T10:44:17.198Z,10.90
2022-09-27T10:46:48.160Z,10.90
2022-09-27T10:49:44.986Z,10.90
2022-09-27T10:52:22.632Z,10.90
2022-09-27T10:55:00.781Z,10.90
2022-09-27T10:57:32.288Z,10.90
2022-09-27T11:00:25.407Z,10.90
2022-09-27T11:03:16.586Z,11.00
2022-09-27T11:05:43.996Z,11.00
2022-09-27T11:08:20.043Z,11.00
2022-09-27T11:11:06.840Z,11.00
2022-09-27T11:13:35.595Z,11.00
2022-09-27T11:16:53.919Z,11.00
2022-09-27T11:19:49.786Z,10.90
2022-09-27T11:22:31.964Z,11.00
2022-09-27T11:25:33.916Z,11.00
2022-09-27T11:28:43.953Z,11.00
2022-09-27T11:31:53.362Z,10.90
2022-09-27T11:34:54.893Z,11.00
2022-09-27T11:37:57.763Z,11.10
2022-09-27T11:40:55.226Z,10.90
2022-09-27T11:44:25.139Z,10.80
2022-09-27T11:47:21.509Z,10.80
2022-09-27T11:50:18.603Z,10.90
2022-09-27T11:53:13.079Z,10.90
2022-09-27T11:56:04.373Z,10.90
2022-09-27T11:58:42.270Z,10.90
2022-09-27T12:01:33.953Z,10.90
2022-09-27T12:04:42.400Z,10.80
2022-09-27T12:07:25.916Z,10.80
2022-09-27T12:10:02.613Z,10.60
2022-09-27T12:12:35.924Z,10.50
2022-09-27T12:15:18.906Z,10.50
2022-09-27T12:17:52.410Z,10.70
2022-09-27T12:20:31.066Z,10.40
2022-09-27T12:23:26.210Z,10.30
2022-09-27T12:26:30.671Z,10.20
2022-09-27T12:29:15.043Z,10.10
2022-09-27T12:32:11.536Z,10.10
2022-09-27T12:35:02.329Z,10.00
2022-09-27T12:37:35.907Z,9.90
2022-09-27T12:40:20.317Z,10.00
2022-09-27T12:43:03.444Z,10.10
2022-09-27T12:45:38.946Z,10.10
2022-09-27T12:48:27.084Z,10.10
2022-09-27T12:51:02.203Z,10.10
2022-09-27T12:53:40.248Z,10.10
2022-09-27T12:56:35.549Z,10.20
2022-09-27T12:59:24.256Z,10.20
2022-09-27T13:02:09.156Z,10.30
2022-09-27T13:04:46.615Z,10.30
2022-09-27T13:07:27.321Z,10.50
2022-09-27T13:10:26.335Z,10.70
2022-09-27T13:12:55.560Z,10.70
2022-09-27T13:15:34.944Z,10.80
2022-09-27T13:18:07.474Z,11.00
2022-09-27T13:20:40.397Z,11.10
2022-09-27T13:23:19.411Z,11.10
2022-09-27T13:26:00.844Z,11.30
2022-09-27T13:28:33.505Z,11.40
2022-09-27T13:31:15.953Z,11.50
2022-09-27T13:34:01.021Z,11.70
2022-09-27T13:36:33.323Z,12.00
2022-09-27T13:39:11.224Z,12.00
2022-09-27T13:41:48.458Z,12.30
2022-09-27T13:44:36.517Z,12.60
2022-09-27T13:47:27.199Z,12.90
2022-09-27T13:50:17.865Z,12.80
2022-09-27T13:53:07.139Z,12.80
2022-09-27T13:55:52.241Z,12.60
2022-09-27T13:58:59.472Z,12.70
2022-09-27T14:02:13.470Z,12.50
2022-09-27T14:04:51.434Z,12.50
2022-09-27T14:07:36.916Z,12.40
2022-09-27T14:10:05.472Z,12.50
2022-09-27T14:12:37.280Z,12.50
2022-09-27T14:15:07.327Z,12.50
2022-09-27T14:17:34.798Z,12.50
2022-09-27T14:20:03.801Z,12.40
2022-09-27T14:22:30.774Z,12.30
2022-09-27T14:24:59.682Z,12.30
2022-09-27T14:27:36.155Z,12.20
2022-09-27T14:30:18.680Z,12.30
2022-09-27T14:33:00.670Z,12.30
2022-09-27T14:35:49.751Z,12.40
2022-09-27T14:38:37.183Z,12.30
2022-09-27T14:41:09.066Z,12.30
2022-09-27T14:43:43.188Z,12.40
2022-09-27T14:46:31.887Z,12.50
2022-09-27T14:48:59.645Z,12.50
2022-09-27T14:51:31.249Z,12.60
2022-09-27T14:54:01.293Z,12.60
2022-09-27T14:56:37.893Z,12.70
2022-09-27T14:59:16.202Z,12.70
2022-09-27T15:02:20.273Z,12.70
2022-09-27T15:04:50.818Z,12.70
2022-09-27T15:07:19.737Z,12.60
2022-09-27T15:09:47.003Z,12.60
2022-09-27T15:12:26.005Z,12.70
2022-09-27T15:14:56.065Z,12.50
2022-09-27T15:17:23.059Z,12.60
2022-09-27T15:20:03.749Z,12.60
2022-09-27T15:22:43.746Z,12.60
2022-09-27T15:25:38.419Z,12.60
2022-09-27T15:28:19.302Z,12.50
2022-09-27T15:30:57.817Z,12.50
2022-09-27T15:33:31.230Z,12.60
2022-09-27T15:36:03.448Z,12.50
2022-09-27T15:38:40.211Z,12.50
2022-09-27T15:41:16.720Z,12.50
2022-09-27T15:43:50.183Z,12.40
2022-09-27T15:46:42.663Z,12.30
2022-09-27T15:49:30.444Z,12.40
2022-09-27T15:52:00.511Z,12.40
2022-09-27T15:54:30.725Z,12.40
2022-09-27T15:57:04.301Z,12.40
2022-09-27T15:59:35.932Z,12.30
2022-09-27T16:02:16.411Z,12.30
2022-09-27T16:04:43.264Z,12.30
2022-09-27T16:07:15.343Z,12.20
2022-09-27T16:09:43.490Z,12.10
2022-09-27T16:12:10.199Z,12.00
2022-09-27T16:14:36.897Z,11.90
2022-09-27T16:17:03.741Z,11.80
2022-09-27T16:19:30.522Z,11.70
2022-09-27T16:21:57.635Z,11.80
2022-09-27T16:24:25.471Z,11.80
2022-09-27T16:26:52.220Z,11.80
2022-09-27T16:29:18.908Z,11.60
2022-09-27T16:31:46.398Z,11.60
2022-09-27T16:34:13.245Z,11.50
2022-09-27T16:36:40.713Z,11.50
2022-09-27T16:39:12.796Z,11.50
2022-09-27T16:41:43.767Z,11.30
2022-09-27T16:44:13.933Z,11.20
2022-09-27T16:47:01.307Z,11.20
2022-09-27T16:49:47.753Z,11.20
2022-09-27T16:52:18.702Z,11.30
2022-09-27T16:54:45.436Z,11.30
2022-09-27T16:57:12.194Z,11.40
2022-09-27T16:59:38.885Z,11.40
2022-09-27T17:02:06.055Z,11.50
2022-09-27T17:04:32.824Z,11.40
2022-09-27T17:07:03.828Z,11.50
2022-09-27T17:09:33.508Z,11.60
2022-09-27T17:12:00.258Z,11.50
2022-09-27T17:14:27.156Z,11.40
2022-09-27T17:16:54.029Z,11.50
2022-09-27T17:19:21.877Z,11.60
2022-09-27T17:21:48.992Z,11.60
2022-09-27T17:24:16.716Z,11.60
2022-09-27T17:26:44.167Z,11.60
2022-09-27T17:29:12.832Z,11.60
2022-09-27T17:31:41.281Z,11.60
2022-09-27T17:34:12.172Z,11.50
2022-09-27T17:36:43.046Z,11.40
2022-09-27T17:39:14.755Z,11.30
2022-09-27T17:41:42.570Z,11.30
2022-09-27T17:44:14.114Z,11.00
2022-09-27T17:46:42.258Z,11.00
2022-09-27T17:49:29.876Z,10.90
2022-09-27T17:51:57.015Z,11.00
2022-09-27T17:54:27.742Z,11.00
2022-09-27T17:56:58.605Z,11.00
2022-09-27T17:59:25.934Z,11.10
2022-09-27T18:01:53.338Z,11.10
2022-09-27T18:04:20.716Z,11.30
2022-09-27T18:06:49.446Z,11.20
2022-09-27T18:09:17.134Z,11.20
2022-09-27T18:11:45.514Z,11.10
2022-09-27T18:14:12.818Z,11.10
2022-09-27T18:16:44.107Z,11.20
2022-09-27T18:19:15.349Z,11.20
2022-09-27T18:21:44.751Z,11.10
2022-09-27T18:24:14.236Z,11.00
2022-09-27T18:26:46.441Z,11.10
2022-09-27T18:29:20.580Z,11.10
2022-09-27T18:31:49.102Z,11.00
2022-09-27T18:34:19.330Z,11.00
2022-09-27T18:36:46.566Z,11.00
2022-09-27T18:39:19.303Z,11.00
2022-09-27T18:41:48.994Z,11.00
2022-09-27T18:44:20.252Z,11.00
2022-09-27T18:46:49.953Z,11.00
2022-09-27T18:49:16.826Z,11.10
2022-09-27T18:51:47.600Z,11.00
2022-09-27T18:54:21.249Z,10.90
2022-09-27T18:56:52.169Z,10.80
2022-09-27T18:59:21.070Z,10.90
2022-09-27T19:01:48.212Z,10.90
2022-09-27T19:04:26.767Z,10.80
2022-09-27T19:06:57.070Z,10.90
2022-09-27T19:09:26.573Z,10.80
2022-09-27T19:11:53.797Z,10.70
2022-09-27T19:14:22.725Z,10.80
2022-09-27T19:16:50.631Z,10.70
2022-09-27T19:19:21.251Z,10.70
2022-09-27T19:21:48.852Z,10.70
2022-09-27T19:24:19.238Z,10.60
2022-09-27T19:26:46.317Z,10.80
2022-09-27T19:29:15.758Z,10.90
2022-09-27T19:31:42.933Z,10.90
2022-09-27T19:34:10.838Z,10.90
2022-09-27T19:36:37.635Z,10.80
2022-09-27T19:39:06.817Z,10.80
2022-09-27T19:41:33.601Z,10.80
2022-09-27T19:44:00.877Z,10.80
2022-09-27T19:46:27.760Z,10.70
2022-09-27T19:49:00.304Z,10.60
2022-09-27T19:51:28.545Z,10.60
2022-09-27T19:53:55.593Z,10.60
2022-09-27T19:56:23.990Z,10.50
2022-09-27T19:58:51.189Z,10.50
2022-09-27T20:01:24.245Z,10.50
2022-09-27T20:03:55.688Z,10.40
2022-09-27T20:06:26.081Z,10.40
2022-09-27T20:08:52.764Z,10.50
2022-09-27T20:11:23.669Z,10.40
2022-09-27T20:13:53.539Z,10.40
2022-09-27T20:16:23.564Z,10.40
2022-09-27T20:18:56.992Z,10.40
2022-09-27T20:21:28.711Z,10.30
2022-09-27T20:23:57.028Z,10.20
2022-09-27T20:26:27.035Z,10.10
2022-09-27T20:28:57.269Z,10.20
2022-09-27T20:31:33.459Z,10.20
2022-09-27T20:34:01.339Z,10.30
2022-09-27T20:36:36.506Z,10.30
2022-09-27T20:39:10.370Z,10.30
2022-09-27T20:41:46.897Z,10.30
2022-09-27T20:44:18.389Z,10.40
2022-09-27T20:46:46.489Z,10.40
2022-09-27T20:49:18.567Z,10.30
2022-09-27T20:51:51.129Z,10.30
2022-09-27T20:54:18.338Z,10.40
2022-09-27T20:56:47.941Z,10.30
2022-09-27T20:59:21.947Z,10.30
2022-09-27T21:01:51.518Z,10.20
2022-09-27T21:04:23.348Z,10.30
2022-09-27T21:06:51.408Z,10.30
2022-09-27T21:09:20.748Z,10.10
2022-09-27T21:11:51.514Z,10.00
2022-09-27T21:14:18.375Z,9.90
2022-09-27T21:16:45.246Z,10.00
2022-09-27T21:19:12.412Z,10.00
2022-09-27T21:21:39.184Z,10.00
2022-09-27T21:24:06.082Z,9.90
2022-09-27T21:26:33.836Z,9.80
2022-09-27T21:29:06.389Z,9.80
2022-09-27T21:31:34.638Z,9.80
2022-09-27T21:34:04.200Z,9.80
2022-09-27T21:36:38.215Z,9.80
2022-09-27T21:39:09.235Z,9.70
2022-09-27T21:41:37.266Z,9.70
2022-09-27T21:44:06.200Z,9.70
2022-09-27T21:46:33.739Z,9.60
2022-09-27T21:49:01.994Z,9.50
2022-09-27T21:51:37.885Z,9.50
2022-09-27T21:54:08.734Z,9.40
2022-09-27T21:56:38.892Z,9.40
2022-09-27T21:59:09.348Z,9.30
2022-09-27T22:01:37.662Z,9.30
2022-09-27T22:04:06.606Z,9.30
2022-09-27T22:06:37.325Z,9.30
2022-09-27T22:09:17.036Z,9.30
2022-09-27T22:11:47.415Z,9.30
2022-09-27T22:14:17.876Z,9.30
2022-09-27T22:16:44.665Z,9.40
2022-09-27T22:19:14.143Z,9.30
2022-09-27T22:21:44.426Z,9.30
2022-09-27T22:24:17.208Z,9.30
2022-09-27T22:27:09.066Z,9.30
2022-09-27T22:29:36.151Z,9.30
2022-09-27T22:32:03.082Z,9.30
2022-09-27T22:34:31.561Z,9.30
2022-09-27T22:37:05.853Z,9.40
2022-09-27T22:39:32.537Z,9.30
2022-09-27T22:41:59.599Z,9.40
2022-09-27T22:44:26.282Z,9.40
2022-09-27T22:46:53.115Z,9.40
2022-09-27T22:49:19.845Z,9.50
2022-09-27T22:51:46.603Z,9.50
2022-09-27T22:54:14.293Z,9.50
2022-09-27T22:56:40.977Z,9.50
2022-09-27T22:59:07.814Z,9.50
2022-09-27T23:01:37.060Z,9.50
2022-09-27T23:04:03.934Z,9.60
2022-09-27T23:06:32.308Z,9.50
2022-09-27T23:08:59.260Z,9.50
2022-09-27T23:11:25.968Z,9.40
2022-09-27T23:13:52.864Z,9.50
2022-09-27T23:16:25.740Z,9.40
2022-09-27T23:18:55.140Z,9.50
2022-09-27T23:21:24.118Z,9.50
2022-09-27T23:23:52.825Z,9.60
2022-09-27T23:26:24.683Z,9.50
2022-09-27T23:28:59.299Z,9.50
2022-09-27T23:31:29.629Z,9.50
2022-09-27T23:33:59.173Z,9.50
2022-09-27T23:36:27.500Z,9.50
2022-09-27T23:39:00.356Z,9.50
2022-09-27T23:41:27.639Z,9.50
2022-09-27T23:43:54.602Z,9.40
2022-09-27T23:46:21.505Z,9.40
2022-09-27T23:48:48.741Z,9.30
2022-09-27T23:51:15.681Z,9.40
2022-09-27T23:53:42.880Z,9.40
2022-09-27T23:56:16.070Z,9.50
2022-09-27T23:58:45.381Z,9.50
